Terminal Aerodrome Forecast
Issued by NWS

Home | Current Version | Previous Version | Text Only | Print | Product List | Glossary On
Versions: 1 2 3 4 5 6 7 8 9 10 11 12 13 14 15 16 17 18 19 20 21 22 23 24
013
FTUS46 KLOX 301845 AAA
TAFLGB
TAF AMD
KLGB 301845Z 3019/0118 19007KT P6SM BKN035
     FM302000 22012KT P6SM SCT040
     FM010000 29008KT P6SM SCT040
     FM010600 15007KT P6SM OVC025=

USA.gov is the U.S. government's official web portal to all federal, state and local government web resources and services.